Lafayette Square, Louisiana
Current Conditions -  °F | °C
As of 3:35 AM on Monday 24 Nov 2014 (Local Time) from KVSH Reporting Station
Overcast Overcast  
Wind Chill: 68°   Ceiling: 300
Heat Index: 68°   Visibility: 6mi
Dew Point: 64°   Wind: 8mph
Humidity: 88%   Direction: 210°SSW
Pressure: 29.78"   Gusts: NA
Location:  29.937°N, 90.0707°W
Report Text: KVSH 240935Z AUTO 21007KT 6SM OVC003 20/18 A2978 RMK AO1
Loading
Personal Weather Stations






























Interactive Weather Map New forecast layout! Learn more

10-Day Weather Forecast

Advertisements
Track Severe Weather on mobile